createdAt,value
2022-10-04T00:01:51.827Z,101857.84
2022-10-04T00:04:32.908Z,101862.53
2022-10-04T00:07:05.336Z,101856.09
2022-10-04T00:09:50.268Z,101860.19
2022-10-04T00:12:48.739Z,101861.88
2022-10-04T00:15:33.225Z,101862.81
2022-10-04T00:18:25.555Z,101857.41
2022-10-04T00:20:55.490Z,101862.84
2022-10-04T00:23:25.665Z,101857.41
2022-10-04T00:26:03.287Z,101855.97
2022-10-04T00:28:38.113Z,101859.66
2022-10-04T00:31:18.418Z,101860.31
2022-10-04T00:33:49.128Z,101857.22
2022-10-04T00:36:25.271Z,101853.09
2022-10-04T00:39:08.085Z,101855.19
2022-10-04T00:41:48.415Z,101850.06
2022-10-04T00:44:52.042Z,101846.53
2022-10-04T00:47:46.793Z,101849.97
2022-10-04T00:50:48.817Z,101833.78
2022-10-04T00:53:36.757Z,101835.19
2022-10-04T00:56:11.446Z,101829.34
2022-10-04T00:58:55.383Z,101832.84
2022-10-04T01:01:28.650Z,101830.28
2022-10-04T01:04:00.488Z,101832.00
2022-10-04T01:06:31.031Z,101825.28
2022-10-04T01:09:06.835Z,101814.03
2022-10-04T01:11:46.292Z,101820.84
2022-10-04T01:14:40.159Z,101819.03
2022-10-04T01:17:10.805Z,101820.16
2022-10-04T01:19:41.465Z,101815.09
2022-10-04T01:22:11.953Z,101817.19
2022-10-04T01:24:42.451Z,101801.63
2022-10-04T01:27:40.060Z,101805.22
2022-10-04T01:30:16.693Z,101811.59
2022-10-04T01:32:45.361Z,101809.34
2022-10-04T01:35:14.997Z,101800.22
2022-10-04T01:37:44.618Z,101802.69
2022-10-04T01:40:12.306Z,101796.56
2022-10-04T01:42:45.994Z,101795.22
2022-10-04T01:45:32.975Z,101791.44
2022-10-04T01:48:09.185Z,101798.97
2022-10-04T01:50:45.364Z,101792.13
2022-10-04T01:53:26.784Z,101786.47
2022-10-04T01:56:24.012Z,101791.75
2022-10-04T01:59:03.800Z,101795.25
2022-10-04T02:01:36.563Z,101792.09
2022-10-04T02:04:22.099Z,101784.09
2022-10-04T02:06:56.380Z,101786.34
2022-10-04T02:09:34.100Z,101788.81
2022-10-04T02:12:01.998Z,101778.38
2022-10-04T02:14:33.756Z,101778.38
2022-10-04T02:17:10.588Z,101776.94
2022-10-04T02:19:42.405Z,101785.19
2022-10-04T02:22:11.533Z,101777.16
2022-10-04T02:24:45.716Z,101776.31
2022-10-04T02:27:14.034Z,101778.25
2022-10-04T02:29:43.855Z,101769.47
2022-10-04T02:32:32.701Z,101776.63
2022-10-04T02:35:00.065Z,101770.78
2022-10-04T02:37:30.194Z,101759.06
2022-10-04T02:40:14.018Z,101760.84
2022-10-04T02:43:02.655Z,101760.47
2022-10-04T02:46:17.707Z,101762.50
2022-10-04T02:48:58.719Z,101764.59
2022-10-04T02:51:37.476Z,101761.00
2022-10-04T02:54:16.898Z,101755.41
2022-10-04T02:56:47.024Z,101751.09
2022-10-04T02:59:16.769Z,101753.81
2022-10-04T03:01:53.590Z,101754.16
2022-10-04T03:04:24.542Z,101746.91
2022-10-04T03:06:53.414Z,101749.25
2022-10-04T03:09:27.408Z,101736.72
2022-10-04T03:11:56.665Z,101733.56
2022-10-04T03:14:30.411Z,101736.03
2022-10-04T03:17:04.027Z,101721.97
2022-10-04T03:19:33.665Z,101715.78
2022-10-04T03:22:07.876Z,101733.81
2022-10-04T03:24:44.044Z,101733.66
2022-10-04T03:27:23.180Z,101725.56
2022-10-04T03:29:50.483Z,101720.22
2022-10-04T03:32:19.555Z,101726.03
2022-10-04T03:35:02.522Z,101727.09
2022-10-04T03:37:35.501Z,101720.63
2022-10-04T03:40:03.615Z,101720.28
2022-10-04T03:42:35.967Z,101731.72
2022-10-04T03:45:17.532Z,101742.28
2022-10-04T03:47:48.646Z,101733.72
2022-10-04T03:50:34.137Z,101735.63
2022-10-04T03:53:10.293Z,101734.97
2022-10-04T03:55:44.368Z,101727.00
2022-10-04T03:58:14.813Z,101728.16
2022-10-04T04:01:00.545Z,101733.19
2022-10-04T04:03:40.489Z,101734.31
2022-10-04T04:06:18.936Z,101734.56
2022-10-04T04:08:52.225Z,101736.59
2022-10-04T04:11:27.437Z,101735.97
2022-10-04T04:14:12.164Z,101723.94
2022-10-04T04:16:44.707Z,101724.22
2022-10-04T04:19:16.611Z,101735.28
2022-10-04T04:21:49.026Z,101738.63
2022-10-04T04:24:28.525Z,101726.75
2022-10-04T04:27:05.301Z,101738.06
2022-10-04T04:29:55.221Z,101737.50
2022-10-04T04:32:50.890Z,101734.09
2022-10-04T04:35:31.755Z,101732.00
2022-10-04T04:38:22.770Z,101730.16
2022-10-04T04:40:55.616Z,101726.59
2022-10-04T04:43:31.091Z,101722.94
2022-10-04T04:46:26.195Z,101730.53
2022-10-04T04:49:02.286Z,101723.84
2022-10-04T04:51:32.588Z,101718.31
2022-10-04T04:54:06.272Z,101710.09
2022-10-04T04:56:36.864Z,101721.75
2022-10-04T04:59:09.265Z,101724.09
2022-10-04T05:01:46.455Z,101732.50
2022-10-04T05:04:24.914Z,101726.75
2022-10-04T05:07:19.082Z,101725.28
2022-10-04T05:09:48.974Z,101727.38
2022-10-04T05:12:25.096Z,101724.72
2022-10-04T05:14:53.977Z,101726.44
2022-10-04T05:17:26.883Z,101714.28
2022-10-04T05:19:58.426Z,101711.88
2022-10-04T05:22:30.099Z,101706.81
2022-10-04T05:25:03.019Z,101701.16
2022-10-04T05:27:38.379Z,101700.13
2022-10-04T05:30:09.363Z,101699.44
2022-10-04T05:33:16.481Z,101689.28
2022-10-04T05:36:04.100Z,101688.53
2022-10-04T05:38:53.610Z,101689.78
2022-10-04T05:41:55.217Z,101694.59
2022-10-04T05:44:46.329Z,101696.78
2022-10-04T05:47:14.819Z,101704.38
2022-10-04T05:49:46.425Z,101705.16
2022-10-04T05:52:36.791Z,101711.91
2022-10-04T05:55:16.123Z,101720.22
2022-10-04T05:58:26.550Z,101714.50
2022-10-04T06:01:10.763Z,101712.31
2022-10-04T06:04:06.153Z,101715.78
2022-10-04T06:06:51.436Z,101723.13
2022-10-04T06:09:56.333Z,101725.97
2022-10-04T06:13:18.072Z,101718.66
2022-10-04T06:16:13.251Z,101725.59
2022-10-04T06:18:46.164Z,101726.56
2022-10-04T06:21:27.919Z,101732.00
2022-10-04T06:24:15.876Z,101730.53
2022-10-04T06:26:53.786Z,101730.09
2022-10-04T06:29:32.152Z,101728.06
2022-10-04T06:32:11.779Z,101725.66
2022-10-04T06:35:44.640Z,101727.53
2022-10-04T06:38:44.555Z,101727.75
2022-10-04T06:41:36.101Z,101733.50
2022-10-04T06:44:37.803Z,101730.94
2022-10-04T06:47:38.996Z,101727.38
2022-10-04T06:50:39.997Z,101726.69
2022-10-04T06:53:17.264Z,101734.25
2022-10-04T06:56:07.110Z,101736.56
2022-10-04T06:59:09.723Z,101742.66
2022-10-04T07:02:06.455Z,101741.97
2022-10-04T07:05:06.294Z,101735.06
2022-10-04T07:07:41.891Z,101742.56
2022-10-04T07:10:26.446Z,101735.91
2022-10-04T07:13:16.578Z,101727.41
2022-10-04T07:16:06.024Z,101729.19
2022-10-04T07:18:44.304Z,101724.41
2022-10-04T07:21:17.400Z,101728.28
2022-10-04T07:23:51.979Z,101718.78
2022-10-04T07:26:49.620Z,101723.97
2022-10-04T07:29:30.350Z,101730.28
2022-10-04T07:32:08.485Z,101730.78
2022-10-04T07:34:53.176Z,101723.50
2022-10-04T07:37:21.693Z,101735.44
2022-10-04T07:40:22.638Z,101731.34
2022-10-04T07:42:55.030Z,101738.56
2022-10-04T07:45:32.743Z,101744.00
2022-10-04T07:48:19.849Z,101754.03
2022-10-04T07:51:04.488Z,101742.38
2022-10-04T07:53:42.929Z,101749.41
2022-10-04T07:56:25.577Z,101748.41
2022-10-04T07:59:07.642Z,101755.81
2022-10-04T08:01:49.911Z,101754.72
2022-10-04T08:04:37.622Z,101748.59
2022-10-04T08:07:28.505Z,101749.00
2022-10-04T08:10:25.762Z,101746.47
2022-10-04T08:13:09.868Z,101751.63
2022-10-04T08:15:42.626Z,101744.81
2022-10-04T08:18:28.119Z,101743.16
2022-10-04T08:21:16.046Z,101741.88
2022-10-04T08:24:07.806Z,101739.03
2022-10-04T08:26:51.273Z,101740.34
2022-10-04T08:30:01.325Z,101738.16
2022-10-04T08:32:28.057Z,101731.13
2022-10-04T08:35:47.235Z,101735.53
2022-10-04T08:38:43.356Z,101744.88
2022-10-04T08:41:28.756Z,101741.50
2022-10-04T08:44:49.603Z,101735.53
2022-10-04T08:47:33.334Z,101733.34
2022-10-04T08:50:25.962Z,101742.69
2022-10-04T08:53:43.814Z,101738.59
2022-10-04T08:56:38.248Z,101739.94
2022-10-04T08:59:50.723Z,101741.09
2022-10-04T09:03:14.241Z,101738.81
2022-10-04T09:06:18.139Z,101734.22
2022-10-04T09:09:35.182Z,101734.56
2022-10-04T09:12:53.630Z,101738.00
2022-10-04T09:15:43.464Z,101731.16
2022-10-04T09:18:13.115Z,101739.78
2022-10-04T09:21:11.232Z,101742.16
2022-10-04T09:24:25.774Z,101737.22
2022-10-04T09:27:26.820Z,101736.81
2022-10-04T09:30:18.852Z,101745.19
2022-10-04T09:33:03.303Z,101740.38
2022-10-04T09:35:54.980Z,101733.75
2022-10-04T09:39:30.323Z,101728.72
2022-10-04T09:42:51.401Z,101739.47
2022-10-04T09:45:45.940Z,101736.97
2022-10-04T09:48:54.252Z,101725.72
2022-10-04T09:51:58.444Z,101721.47
2022-10-04T09:54:56.945Z,101716.81
2022-10-04T09:57:49.989Z,101721.59
2022-10-04T10:00:25.215Z,101710.53
2022-10-04T10:03:31.894Z,101703.19
2022-10-04T10:06:21.264Z,101707.59
2022-10-04T10:09:50.569Z,101705.19
2022-10-04T10:13:06.736Z,101688.19
2022-10-04T10:15:44.033Z,101695.25
2022-10-04T10:19:08.385Z,101705.25
2022-10-04T10:22:26.892Z,101701.91
2022-10-04T10:25:25.909Z,101699.47
2022-10-04T10:28:04.910Z,101701.06
2022-10-04T10:31:13.546Z,101695.59
2022-10-04T10:34:18.471Z,101694.13
2022-10-04T10:37:05.057Z,101698.63
2022-10-04T10:39:38.019Z,101695.78
2022-10-04T10:42:42.003Z,101701.72
2022-10-04T10:45:27.525Z,101698.56
2022-10-04T10:48:06.355Z,101700.56
2022-10-04T10:51:03.367Z,101693.00
2022-10-04T10:54:06.730Z,101707.66
2022-10-04T10:56:45.990Z,101709.53
2022-10-04T10:59:34.179Z,101705.28
2022-10-04T11:02:37.391Z,101689.00
2022-10-04T11:05:33.544Z,101676.06
2022-10-04T11:08:30.513Z,101676.91
2022-10-04T11:11:03.261Z,101675.31
2022-10-04T11:14:11.793Z,101672.28
2022-10-04T11:16:59.024Z,101674.16
2022-10-04T11:19:57.373Z,101678.09
2022-10-04T11:23:02.069Z,101677.91
2022-10-04T11:25:45.098Z,101674.09
2022-10-04T11:28:19.490Z,101666.66
2022-10-04T11:30:58.416Z,101666.97
2022-10-04T11:34:18.631Z,101664.19
2022-10-04T11:37:07.604Z,101662.53
2022-10-04T11:39:44.507Z,101668.44
2022-10-04T11:42:56.028Z,101673.53
2022-10-04T11:46:08.544Z,101661.00
2022-10-04T11:49:24.152Z,101646.56
2022-10-04T11:52:22.864Z,101647.50
2022-10-04T11:55:10.637Z,101648.81
2022-10-04T11:57:53.240Z,101645.19
2022-10-04T12:00:46.983Z,101662.22
2022-10-04T12:03:44.228Z,101656.28
2022-10-04T12:07:14.938Z,101642.84
2022-10-04T12:10:28.869Z,101634.75
2022-10-04T12:13:16.049Z,101638.22
2022-10-04T12:16:29.635Z,101621.38
2022-10-04T12:19:26.263Z,101622.78
2022-10-04T12:22:23.294Z,101616.81
2022-10-04T12:25:26.940Z,101607.53
2022-10-04T12:28:12.427Z,101601.88
2022-10-04T12:31:04.070Z,101588.28
2022-10-04T12:33:45.571Z,101586.44
2022-10-04T12:36:50.346Z,101585.81
2022-10-04T12:39:45.028Z,101584.72
2022-10-04T12:42:45.758Z,101589.78
2022-10-04T12:45:41.255Z,101601.53
2022-10-04T12:48:49.065Z,101586.41
2022-10-04T12:51:33.611Z,101571.59
2022-10-04T12:54:39.185Z,101568.22
2022-10-04T12:57:39.174Z,101565.59
2022-10-04T13:00:23.517Z,101565.91
2022-10-04T13:03:20.084Z,101577.72
2022-10-04T13:05:46.804Z,101565.66
2022-10-04T13:08:24.811Z,101562.06
2022-10-04T13:10:57.203Z,101565.16
2022-10-04T13:14:11.140Z,101554.72
2022-10-04T13:17:30.325Z,101551.38
2022-10-04T13:20:34.010Z,101545.28
2022-10-04T13:23:36.006Z,101547.53
2022-10-04T13:26:30.306Z,101532.09
2022-10-04T13:29:07.918Z,101535.81
2022-10-04T13:31:50.900Z,101534.75
2022-10-04T13:35:09.483Z,101527.78
2022-10-04T13:37:52.006Z,101527.50
2022-10-04T13:40:37.038Z,101523.09
2022-10-04T13:43:15.370Z,101528.75
2022-10-04T13:45:57.642Z,101529.78
2022-10-04T13:49:07.491Z,101525.56
2022-10-04T13:51:49.189Z,101529.41
2022-10-04T13:54:56.133Z,101540.75
2022-10-04T13:57:48.998Z,101532.59
2022-10-04T14:01:09.156Z,101535.56
2022-10-04T14:04:09.253Z,101520.41
2022-10-04T14:07:16.477Z,101514.63
2022-10-04T14:10:43.462Z,101520.53
2022-10-04T14:13:37.361Z,101512.44
2022-10-04T14:16:37.900Z,101503.25
2022-10-04T14:19:43.810Z,101495.00
2022-10-04T14:22:36.222Z,101489.00
2022-10-04T14:26:03.453Z,101472.41
2022-10-04T14:29:03.766Z,101466.75
2022-10-04T14:32:13.969Z,101465.97
2022-10-04T14:35:14.938Z,101466.25
2022-10-04T14:38:24.511Z,101472.41
2022-10-04T14:41:20.596Z,101469.56
2022-10-04T14:44:33.511Z,101470.38
2022-10-04T14:47:36.718Z,101449.63
2022-10-04T14:50:44.246Z,101447.66
2022-10-04T14:53:32.210Z,101447.47
2022-10-04T14:56:21.589Z,101436.78
2022-10-04T14:59:14.667Z,101445.78
2022-10-04T15:02:01.486Z,101455.38
2022-10-04T15:05:02.896Z,101444.53
2022-10-04T15:07:36.714Z,101446.91
2022-10-04T15:10:22.559Z,101454.13
2022-10-04T15:13:25.472Z,101451.44
2022-10-04T15:16:02.209Z,101456.69
2022-10-04T15:18:45.950Z,101454.09
2022-10-04T15:21:35.491Z,101450.13
2022-10-04T15:24:27.707Z,101449.84
2022-10-04T15:27:15.899Z,101456.28
2022-10-04T15:30:15.437Z,101443.50
2022-10-04T15:33:06.540Z,101442.59
2022-10-04T15:36:17.074Z,101425.66
2022-10-04T15:39:02.916Z,101442.78
2022-10-04T15:42:01.950Z,101443.22
2022-10-04T15:44:47.322Z,101429.69
2022-10-04T15:47:49.323Z,101433.50
2022-10-04T15:50:33.329Z,101441.75
2022-10-04T15:53:47.442Z,101445.56
2022-10-04T15:56:35.872Z,101458.47
2022-10-04T15:59:32.359Z,101456.34
2022-10-04T16:02:20.496Z,101451.69
2022-10-04T16:05:32.522Z,101442.59
2022-10-04T16:08:22.538Z,101432.44
2022-10-04T16:11:00.380Z,101427.78
2022-10-04T16:13:49.289Z,101422.69
2022-10-04T16:16:16.117Z,101432.22
2022-10-04T16:18:57.671Z,101430.75
2022-10-04T16:21:52.588Z,101416.56
2022-10-04T16:24:25.006Z,101416.34
2022-10-04T16:26:51.753Z,101411.00
2022-10-04T16:29:36.524Z,101411.00
2022-10-04T16:32:27.215Z,101414.34
2022-10-04T16:35:00.114Z,101423.63
2022-10-04T16:38:00.177Z,101411.41
2022-10-04T16:40:35.545Z,101411.97
2022-10-04T16:43:17.563Z,101413.19
2022-10-04T16:46:23.195Z,101412.66
2022-10-04T16:49:01.209Z,101415.41
2022-10-04T16:51:45.604Z,101411.28
2022-10-04T16:54:52.775Z,101406.41
2022-10-04T16:57:27.426Z,101409.25
2022-10-04T17:00:47.858Z,101407.13
2022-10-04T17:03:32.510Z,101415.56
2022-10-04T17:06:16.230Z,101409.63
2022-10-04T17:09:36.981Z,101410.81
2022-10-04T17:12:28.622Z,101427.13
2022-10-04T17:15:09.350Z,101416.03
2022-10-04T17:17:54.478Z,101415.97
2022-10-04T17:20:32.577Z,101412.50
2022-10-04T17:23:55.827Z,101419.44
2022-10-04T17:26:45.733Z,101413.34
2022-10-04T17:29:47.281Z,101405.59
2022-10-04T17:32:30.295Z,101405.13
2022-10-04T17:35:34.921Z,101393.06
2022-10-04T17:38:26.853Z,101395.22
2022-10-04T17:41:08.484Z,101392.69
2022-10-04T17:43:58.048Z,101391.38
2022-10-04T17:46:59.910Z,101395.22
2022-10-04T17:50:25.509Z,101402.50
2022-10-04T17:53:19.444Z,101410.25
2022-10-04T17:56:21.688Z,101415.81
2022-10-04T17:58:57.504Z,101420.25
2022-10-04T18:01:48.818Z,101414.22
2022-10-04T18:04:36.765Z,101411.00
2022-10-04T18:07:31.498Z,101407.97
2022-10-04T18:10:22.277Z,101397.03
2022-10-04T18:13:06.164Z,101400.44
2022-10-04T18:15:44.414Z,101398.28
2022-10-04T18:18:11.452Z,101395.81
2022-10-04T18:20:55.053Z,101403.84
2022-10-04T18:23:30.886Z,101406.47
2022-10-04T18:26:15.326Z,101403.06
2022-10-04T18:28:47.293Z,101389.56
2022-10-04T18:31:20.624Z,101393.69
2022-10-04T18:33:54.199Z,101402.59
2022-10-04T18:36:32.257Z,101395.44
2022-10-04T18:39:18.518Z,101399.34
2022-10-04T18:42:29.677Z,101401.41
2022-10-04T18:45:23.365Z,101411.34
2022-10-04T18:47:55.796Z,101419.91
2022-10-04T18:50:47.060Z,101413.84
2022-10-04T18:54:12.366Z,101420.94
2022-10-04T18:57:18.079Z,101396.09
2022-10-04T19:00:29.035Z,101395.94
2022-10-04T19:03:22.564Z,101384.84
2022-10-04T19:06:07.555Z,101385.50
2022-10-04T19:08:57.998Z,101394.84
2022-10-04T19:11:37.420Z,101384.91
2022-10-04T19:14:32.715Z,101378.09
2022-10-04T19:17:04.715Z,101366.81
2022-10-04T19:19:40.751Z,101370.44
2022-10-04T19:22:32.638Z,101383.31
2022-10-04T19:25:30.555Z,101381.50
2022-10-04T19:28:07.193Z,101385.75
2022-10-04T19:30:52.083Z,101386.41
2022-10-04T19:33:31.431Z,101384.03
2022-10-04T19:36:46.319Z,101409.63
2022-10-04T19:39:44.215Z,101438.97
2022-10-04T19:42:45.583Z,101452.41
2022-10-04T19:45:33.377Z,101453.19
2022-10-04T19:48:08.265Z,101430.63
2022-10-04T19:50:48.549Z,101417.19
2022-10-04T19:53:45.803Z,101426.00
2022-10-04T19:56:24.314Z,101388.56
2022-10-04T19:59:28.147Z,101375.00
2022-10-04T20:01:56.792Z,101382.50
2022-10-04T20:04:35.783Z,101375.16
2022-10-04T20:07:25.728Z,101367.50
2022-10-04T20:09:56.869Z,101378.19
2022-10-04T20:12:41.383Z,101387.63
2022-10-04T20:15:17.390Z,101385.91
2022-10-04T20:17:49.227Z,101393.94
2022-10-04T20:20:38.866Z,101393.75
2022-10-04T20:23:12.654Z,101398.38
2022-10-04T20:25:45.901Z,101400.56
2022-10-04T20:28:32.807Z,101399.97
2022-10-04T20:31:02.967Z,101398.84
2022-10-04T20:33:50.309Z,101399.59
2022-10-04T20:36:22.298Z,101391.53
2022-10-04T20:38:50.767Z,101382.53
2022-10-04T20:41:30.121Z,101379.09
2022-10-04T20:44:06.317Z,101386.94
2022-10-04T20:46:53.049Z,101389.88
2022-10-04T20:49:22.384Z,101391.56
2022-10-04T20:51:50.093Z,101393.06
2022-10-04T20:54:18.736Z,101403.69
2022-10-04T20:56:51.375Z,101407.09
2022-10-04T20:59:18.781Z,101417.50
2022-10-04T21:02:10.850Z,101412.88
2022-10-04T21:04:46.539Z,101406.78
2022-10-04T21:07:33.627Z,101398.03
2022-10-04T21:10:16.473Z,101394.81
2022-10-04T21:12:47.299Z,101396.56
2022-10-04T21:15:18.421Z,101394.56
2022-10-04T21:18:04.849Z,101391.81
2022-10-04T21:21:03.719Z,101382.97
2022-10-04T21:23:35.387Z,101374.72
2022-10-04T21:26:27.927Z,101369.66
2022-10-04T21:29:01.741Z,101354.88
2022-10-04T21:31:28.596Z,101359.84
2022-10-04T21:33:55.664Z,101352.53
2022-10-04T21:36:25.610Z,101350.97
2022-10-04T21:38:54.187Z,101352.63
2022-10-04T21:41:23.249Z,101347.56
2022-10-04T21:43:52.539Z,101351.03
2022-10-04T21:46:22.318Z,101351.66
2022-10-04T21:48:49.458Z,101365.56
2022-10-04T21:51:19.426Z,101368.25
2022-10-04T21:53:49.311Z,101378.81
2022-10-04T21:56:16.401Z,101379.13
2022-10-04T21:58:43.244Z,101384.50
2022-10-04T22:01:12.485Z,101384.63
2022-10-04T22:03:39.320Z,101383.47
2022-10-04T22:06:06.256Z,101383.78
2022-10-04T22:08:37.584Z,101377.09
2022-10-04T22:11:05.922Z,101398.59
2022-10-04T22:13:35.441Z,101389.69
2022-10-04T22:16:05.411Z,101381.00
2022-10-04T22:18:35.299Z,101388.06
2022-10-04T22:21:08.392Z,101386.16
2022-10-04T22:23:46.665Z,101386.06
2022-10-04T22:26:17.636Z,101376.84
2022-10-04T22:28:49.055Z,101382.66
2022-10-04T22:31:29.192Z,101378.38
2022-10-04T22:33:57.274Z,101400.28
2022-10-04T22:36:34.847Z,101392.78
2022-10-04T22:39:11.002Z,101395.88
2022-10-04T22:41:54.255Z,101393.53
2022-10-04T22:44:37.546Z,101384.38
2022-10-04T22:47:10.540Z,101385.94
2022-10-04T22:49:44.527Z,101379.09
2022-10-04T22:52:23.936Z,101370.56
2022-10-04T22:54:57.877Z,101368.00
2022-10-04T22:57:25.231Z,101361.53
2022-10-04T22:59:54.946Z,101357.97
2022-10-04T23:02:26.963Z,101352.66
2022-10-04T23:05:11.811Z,101355.72
2022-10-04T23:07:41.855Z,101348.19
2022-10-04T23:10:12.491Z,101355.22
2022-10-04T23:12:40.763Z,101354.50
2022-10-04T23:15:09.825Z,101348.19
2022-10-04T23:17:43.648Z,101342.41
2022-10-04T23:20:20.465Z,101344.06
2022-10-04T23:22:52.728Z,101336.28
2022-10-04T23:25:28.771Z,101337.31
2022-10-04T23:28:07.965Z,101340.00
2022-10-04T23:30:37.386Z,101343.50
2022-10-04T23:33:20.555Z,101340.09
2022-10-04T23:35:49.467Z,101340.81
2022-10-04T23:38:19.363Z,101341.88
2022-10-04T23:40:48.792Z,101349.00
2022-10-04T23:43:25.042Z,101343.56
2022-10-04T23:46:00.475Z,101334.56
2022-10-04T23:48:37.918Z,101335.41
2022-10-04T23:51:07.340Z,101329.81
2022-10-04T23:53:36.445Z,101328.47
2022-10-04T23:56:20.060Z,101319.25
2022-10-04T23:58:51.542Z,101327.78
